createdAt,value
2022-12-29T00:02:23.864Z,87.40
2022-12-29T00:06:40.360Z,87.58
2022-12-29T00:10:44.104Z,87.78
2022-12-29T00:15:07.395Z,87.78
2022-12-29T00:19:30.967Z,89.91
2022-12-29T00:23:57.427Z,89.82
2022-12-29T00:28:19.268Z,91.71
2022-12-29T00:32:58.767Z,91.48
2022-12-29T00:37:03.391Z,92.01
2022-12-29T00:41:30.312Z,92.63
2022-12-29T00:45:33.284Z,92.33
2022-12-29T00:49:39.531Z,91.85
2022-12-29T00:53:53.043Z,92.69
2022-12-29T00:57:58.906Z,92.82
2022-12-29T01:02:02.335Z,91.26
2022-12-29T01:06:26.507Z,91.54
2022-12-29T01:10:29.645Z,91.19
2022-12-29T01:14:32.817Z,91.23
2022-12-29T01:18:44.379Z,91.50
2022-12-29T01:22:48.850Z,90.08
2022-12-29T01:26:52.116Z,90.13
2022-12-29T01:30:55.880Z,89.81
2022-12-29T01:34:59.381Z,89.64
2022-12-29T01:39:09.197Z,89.13
2022-12-29T01:43:13.568Z,89.96
2022-12-29T01:47:24.784Z,89.21
2022-12-29T01:51:34.318Z,90.29
2022-12-29T01:55:56.613Z,89.61
2022-12-29T02:00:03.153Z,90.25
2022-12-29T02:04:26.400Z,90.22
2022-12-29T02:08:32.888Z,89.12
2022-12-29T02:12:38.639Z,89.44
2022-12-29T02:16:54.887Z,89.35
2022-12-29T02:21:42.758Z,89.59
2022-12-29T02:26:00.122Z,89.17
2022-12-29T02:30:14.851Z,88.66
2022-12-29T02:34:25.965Z,88.26
2022-12-29T02:38:56.972Z,87.81
2022-12-29T02:43:12.753Z,87.51
2022-12-29T02:47:25.951Z,87.66
2022-12-29T02:51:34.094Z,86.88
2022-12-29T02:55:38.338Z,86.34
2022-12-29T02:59:41.589Z,85.90
2022-12-29T03:03:51.217Z,86.67
2022-12-29T03:08:01.410Z,85.62
2022-12-29T03:12:12.496Z,85.60
2022-12-29T03:16:21.535Z,85.74
2022-12-29T03:20:27.736Z,86.19
2022-12-29T03:24:56.863Z,85.69
2022-12-29T03:28:59.902Z,85.38
2022-12-29T03:33:05.177Z,85.09
2022-12-29T03:37:13.193Z,85.61
2022-12-29T03:41:21.304Z,86.08
2022-12-29T03:45:37.000Z,86.35
2022-12-29T03:49:40.476Z,86.74
2022-12-29T03:53:48.576Z,86.44
2022-12-29T03:58:12.503Z,88.31
2022-12-29T04:02:25.158Z,88.96
2022-12-29T04:06:28.226Z,88.45
2022-12-29T04:10:37.041Z,88.09
2022-12-29T04:14:54.959Z,87.47
2022-12-29T04:19:01.305Z,87.00
2022-12-29T04:23:05.586Z,87.07
2022-12-29T04:27:08.523Z,85.96
2022-12-29T04:31:14.014Z,86.34
2022-12-29T04:35:18.178Z,85.09
2022-12-29T04:39:21.224Z,84.96
2022-12-29T04:43:39.968Z,86.14
2022-12-29T04:47:45.626Z,84.19
2022-12-29T04:51:50.138Z,85.11
2022-12-29T04:55:56.156Z,85.34
2022-12-29T05:00:00.077Z,86.88
2022-12-29T05:04:05.434Z,86.02
2022-12-29T05:08:08.867Z,86.50
2022-12-29T05:12:11.970Z,86.64
2022-12-29T05:16:17.425Z,87.27
2022-12-29T05:20:22.605Z,87.43
2022-12-29T05:24:25.546Z,86.99
2022-12-29T05:28:29.083Z,87.62
2022-12-29T05:32:33.813Z,85.88
2022-12-29T05:36:38.403Z,86.92
2022-12-29T05:40:41.531Z,86.75
2022-12-29T05:44:44.492Z,85.49
2022-12-29T05:48:47.656Z,85.61
2022-12-29T05:52:52.873Z,84.78
2022-12-29T05:56:56.280Z,85.22
2022-12-29T06:00:59.485Z,85.54
2022-12-29T06:05:02.377Z,86.80
2022-12-29T06:09:12.489Z,89.08
2022-12-29T06:13:25.273Z,89.51
2022-12-29T06:17:30.952Z,89.50
2022-12-29T06:21:34.192Z,90.18
2022-12-29T06:25:40.862Z,89.40
2022-12-29T06:29:49.397Z,88.15
2022-12-29T06:33:52.387Z,86.27
2022-12-29T06:38:06.339Z,86.68
2022-12-29T06:42:14.194Z,87.05
2022-12-29T06:46:18.867Z,86.72
2022-12-29T06:50:26.654Z,86.75
2022-12-29T06:54:29.532Z,88.29
2022-12-29T06:58:33.878Z,87.47
2022-12-29T07:02:36.977Z,86.05
2022-12-29T07:06:41.667Z,85.60
2022-12-29T07:10:47.358Z,86.14
2022-12-29T07:14:51.800Z,85.59
2022-12-29T07:18:55.976Z,84.99
2022-12-29T07:22:58.781Z,85.74
2022-12-29T07:27:01.764Z,85.75
2022-12-29T07:31:06.998Z,84.82
2022-12-29T07:35:10.897Z,85.04
2022-12-29T07:39:13.998Z,84.35
2022-12-29T07:43:17.435Z,84.97
2022-12-29T07:47:38.680Z,85.47
2022-12-29T07:51:41.559Z,85.49
2022-12-29T07:55:44.353Z,84.94
2022-12-29T07:59:47.680Z,85.52
2022-12-29T08:03:57.107Z,85.92
2022-12-29T08:08:01.148Z,86.64
2022-12-29T08:12:04.174Z,86.41
2022-12-29T08:16:08.039Z,86.26
2022-12-29T08:20:15.598Z,86.98
2022-12-29T08:24:19.283Z,86.49
2022-12-29T08:28:22.102Z,86.46
2022-12-29T08:32:27.722Z,87.86
2022-12-29T08:36:33.862Z,87.39
2022-12-29T08:40:36.929Z,87.78
2022-12-29T08:44:40.255Z,88.48
2022-12-29T08:48:43.174Z,90.13
2022-12-29T08:52:51.499Z,91.48
2022-12-29T08:56:55.108Z,90.70
2022-12-29T09:01:03.527Z,92.34
2022-12-29T09:05:07.497Z,92.27
2022-12-29T09:09:17.132Z,93.12
2022-12-29T09:13:20.606Z,93.17
2022-12-29T09:18:01.385Z,93.01
2022-12-29T09:22:06.582Z,93.10
2022-12-29T09:26:13.707Z,92.27
2022-12-29T09:30:16.833Z,93.17
2022-12-29T09:34:19.676Z,93.96
2022-12-29T09:38:22.805Z,93.51
2022-12-29T09:42:42.579Z,93.75
2022-12-29T09:46:48.663Z,93.05
2022-12-29T09:50:55.329Z,92.69
2022-12-29T09:55:13.921Z,92.46
2022-12-29T09:59:22.597Z,93.02
2022-12-29T10:03:29.233Z,92.04
2022-12-29T10:07:53.093Z,92.07
2022-12-29T10:12:06.516Z,92.45
2022-12-29T10:16:15.064Z,92.27
2022-12-29T10:20:27.927Z,92.11
2022-12-29T10:24:31.977Z,92.14
2022-12-29T10:28:38.920Z,92.71
2022-12-29T10:32:59.070Z,92.39
2022-12-29T10:37:12.405Z,92.12
2022-12-29T10:41:24.301Z,92.49
2022-12-29T10:45:31.552Z,91.47
2022-12-29T10:49:46.888Z,90.64
2022-12-29T10:53:53.782Z,91.37
2022-12-29T10:58:10.896Z,90.16
2022-12-29T11:03:03.536Z,91.19
2022-12-29T11:07:15.652Z,90.07
2022-12-29T11:11:57.954Z,90.19
2022-12-29T11:16:15.140Z,89.52
2022-12-29T11:20:38.782Z,90.65
2022-12-29T11:24:54.322Z,89.76
2022-12-29T11:29:20.224Z,89.92
2022-12-29T11:33:41.625Z,89.44
2022-12-29T11:37:46.475Z,89.86
2022-12-29T11:42:02.133Z,87.61
2022-12-29T11:46:21.298Z,87.55
2022-12-29T11:50:27.574Z,86.67
2022-12-29T11:54:51.058Z,87.52
2022-12-29T11:59:17.017Z,85.46
2022-12-29T12:03:25.005Z,84.19
2022-12-29T12:07:43.942Z,84.99
2022-12-29T12:11:56.173Z,82.34
2022-12-29T12:16:07.370Z,83.28
2022-12-29T12:20:24.543Z,82.03
2022-12-29T12:29:07.629Z,84.08
2022-12-29T12:33:31.753Z,83.32
2022-12-29T12:42:28.899Z,80.65
2022-12-29T12:47:00.146Z,82.40
2022-12-29T12:51:13.696Z,80.42
2022-12-29T12:56:02.800Z,80.51
2022-12-29T13:00:11.806Z,81.17
2022-12-29T13:04:50.041Z,80.55
2022-12-29T13:09:12.831Z,80.22
2022-12-29T13:13:40.698Z,81.22
2022-12-29T13:17:49.653Z,81.03
2022-12-29T13:22:06.295Z,80.39
2022-12-29T13:26:27.251Z,80.84
2022-12-29T13:30:36.637Z,79.58
2022-12-29T13:34:51.443Z,77.80
2022-12-29T13:39:02.892Z,81.02
2022-12-29T13:43:09.228Z,79.41
2022-12-29T13:47:23.509Z,77.92
2022-12-29T13:51:34.015Z,76.44
2022-12-29T13:55:44.134Z,79.04
2022-12-29T14:00:11.225Z,76.83
2022-12-29T14:04:26.741Z,75.92
2022-12-29T14:08:34.875Z,77.35
2022-12-29T14:12:45.465Z,77.55
2022-12-29T14:16:51.080Z,77.61
2022-12-29T14:21:10.843Z,77.33
2022-12-29T14:26:00.159Z,76.12
2022-12-29T14:31:01.414Z,78.92
2022-12-29T14:35:42.349Z,78.68
2022-12-29T14:39:52.427Z,78.17
2022-12-29T14:44:02.634Z,77.41
2022-12-29T14:48:05.881Z,77.35
2022-12-29T14:52:48.884Z,78.11
2022-12-29T14:56:57.093Z,78.68
2022-12-29T15:01:03.387Z,77.50
2022-12-29T15:05:18.823Z,78.07
2022-12-29T15:14:01.319Z,80.68
2022-12-29T15:18:27.120Z,81.16
2022-12-29T15:22:34.797Z,80.58
2022-12-29T15:26:49.493Z,80.30
2022-12-29T15:30:58.632Z,81.94
2022-12-29T15:35:06.564Z,81.56
2022-12-29T15:39:21.018Z,79.29
2022-12-29T15:43:46.885Z,79.56
2022-12-29T15:47:58.261Z,80.07
2022-12-29T15:52:02.470Z,80.44
2022-12-29T15:56:19.817Z,82.36
2022-12-29T16:00:52.824Z,82.27
2022-12-29T16:05:20.019Z,83.45
2022-12-29T16:14:27.149Z,83.88
2022-12-29T16:18:45.568Z,83.39
2022-12-29T16:23:08.717Z,85.60
2022-12-29T16:27:39.326Z,85.96
2022-12-29T16:31:54.650Z,85.84
2022-12-29T16:35:59.824Z,87.37
2022-12-29T16:40:30.472Z,87.56
2022-12-29T16:44:36.448Z,89.30
2022-12-29T16:48:50.227Z,89.28
2022-12-29T16:52:55.364Z,89.91
2022-12-29T16:57:02.003Z,90.00
2022-12-29T17:01:20.365Z,90.03
2022-12-29T17:05:28.101Z,89.69
2022-12-29T17:09:32.948Z,90.83
2022-12-29T17:13:40.675Z,90.87
2022-12-29T17:18:00.418Z,90.43
2022-12-29T17:22:03.471Z,90.50
2022-12-29T17:26:15.866Z,89.61
2022-12-29T17:30:36.290Z,89.67
2022-12-29T17:34:59.292Z,89.28
2022-12-29T17:39:02.289Z,88.45
2022-12-29T17:43:10.256Z,87.49
2022-12-29T17:51:37.138Z,87.60
2022-12-29T17:55:40.306Z,87.52
2022-12-29T18:00:03.328Z,87.27
2022-12-29T18:04:11.123Z,87.06
2022-12-29T18:08:25.198Z,87.82
2022-12-29T18:12:37.693Z,87.04
2022-12-29T18:16:48.945Z,87.80
2022-12-29T18:21:04.264Z,87.02
2022-12-29T18:25:29.152Z,87.73
2022-12-29T18:29:42.926Z,87.10
2022-12-29T18:33:50.215Z,87.66
2022-12-29T18:38:11.046Z,87.73
2022-12-29T18:42:26.864Z,88.05
2022-12-29T18:46:40.773Z,86.42
2022-12-29T18:50:50.369Z,86.00
2022-12-29T18:55:07.280Z,84.78
2022-12-29T18:59:13.508Z,84.98
2022-12-29T19:03:26.907Z,85.18
2022-12-29T19:07:38.997Z,84.65
2022-12-29T19:11:52.034Z,83.96
2022-12-29T19:16:05.667Z,84.31
2022-12-29T19:20:36.037Z,83.25
2022-12-29T19:24:49.103Z,84.54
2022-12-29T19:29:21.780Z,84.17
2022-12-29T19:33:43.755Z,83.59
2022-12-29T19:37:58.235Z,82.51
2022-12-29T19:42:05.818Z,82.83
2022-12-29T19:46:18.089Z,82.41
2022-12-29T19:50:27.855Z,82.00
2022-12-29T19:54:32.283Z,80.68
2022-12-29T19:58:42.596Z,81.62
2022-12-29T20:03:02.482Z,81.54
2022-12-29T20:07:10.630Z,82.92
2022-12-29T20:11:45.381Z,82.04
2022-12-29T20:15:50.700Z,82.84
2022-12-29T20:19:55.106Z,80.73
2022-12-29T20:24:03.327Z,84.32
2022-12-29T20:28:12.865Z,83.23
2022-12-29T20:32:33.130Z,84.83
2022-12-29T20:36:48.198Z,83.91
2022-12-29T20:40:54.886Z,83.63
2022-12-29T20:45:07.262Z,84.89
2022-12-29T20:49:31.339Z,84.60
2022-12-29T20:53:41.071Z,84.64
2022-12-29T21:02:22.661Z,85.19
2022-12-29T21:06:33.875Z,84.21
2022-12-29T21:10:49.583Z,84.14
2022-12-29T21:15:33.896Z,85.52
2022-12-29T21:19:45.418Z,84.11
2022-12-29T21:23:51.944Z,85.71
2022-12-29T21:28:15.579Z,85.37
2022-12-29T21:32:28.100Z,84.39
2022-12-29T21:36:32.020Z,84.02
2022-12-29T21:40:50.461Z,84.41
2022-12-29T21:45:20.761Z,84.80
2022-12-29T21:49:26.502Z,85.49
2022-12-29T21:53:43.500Z,85.44
2022-12-29T21:58:10.156Z,85.70
2022-12-29T22:02:42.325Z,85.54
2022-12-29T22:07:08.758Z,85.64
2022-12-29T22:11:30.173Z,86.42
2022-12-29T22:15:45.188Z,86.51
2022-12-29T22:19:55.535Z,85.77
2022-12-29T22:24:03.250Z,85.51
2022-12-29T22:28:09.370Z,86.95
2022-12-29T22:32:16.556Z,87.92
2022-12-29T22:36:24.730Z,88.29
2022-12-29T22:40:31.784Z,88.09
2022-12-29T22:44:45.586Z,87.91
2022-12-29T22:49:10.737Z,88.63
2022-12-29T22:53:25.167Z,89.61
2022-12-29T22:57:31.603Z,89.82
2022-12-29T23:01:36.698Z,89.20
2022-12-29T23:05:50.010Z,89.56
2022-12-29T23:09:58.629Z,89.73
2022-12-29T23:14:07.135Z,89.70
2022-12-29T23:18:17.593Z,90.22
2022-12-29T23:22:28.816Z,90.27
2022-12-29T23:26:43.823Z,90.29
2022-12-29T23:30:48.710Z,90.20
2022-12-29T23:34:52.905Z,91.86
2022-12-29T23:39:02.322Z,91.14
2022-12-29T23:43:11.474Z,91.31
2022-12-29T23:47:22.738Z,91.58
2022-12-29T23:51:27.756Z,91.64
2022-12-29T23:55:35.141Z,91.40
2022-12-29T23:59:59.318Z,92.18
